sensor_id;sensor_type;location;lat;lon;timestamp;P1;durP1;ratioP1;P2;durP2;ratioP2
40717;SDS011;26405;51.850;-2.246;2023-09-12T00:02:39;7.80;;;3.50;;
40717;SDS011;26405;51.850;-2.246;2023-09-12T00:05:05;7.93;;;3.43;;
40717;SDS011;26405;51.850;-2.246;2023-09-12T00:07:30;7.67;;;3.30;;
40717;SDS011;26405;51.850;-2.246;2023-09-12T00:09:55;7.13;;;3.60;;
40717;SDS011;26405;51.850;-2.246;2023-09-12T00:12:22;7.27;;;3.30;;
40717;SDS011;26405;51.850;-2.246;2023-09-12T00:14:48;8.05;;;3.42;;
40717;SDS011;26405;51.850;-2.246;2023-09-12T00:17:14;6.77;;;3.43;;
40717;SDS011;26405;51.850;-2.246;2023-09-12T00:19:39;5.70;;;3.00;;
40717;SDS011;26405;51.850;-2.246;2023-09-12T00:22:04;9.03;;;3.77;;
40717;SDS011;26405;51.850;-2.246;2023-09-12T00:24:29;8.37;;;3.70;;
40717;SDS011;26405;51.850;-2.246;2023-09-12T00:26:55;7.40;;;3.60;;
40717;SDS011;26405;51.850;-2.246;2023-09-12T00:29:20;10.33;;;3.93;;
40717;SDS011;26405;51.850;-2.246;2023-09-12T00:31:45;8.37;;;3.53;;
40717;SDS011;26405;51.850;-2.246;2023-09-12T00:34:15;6.67;;;3.40;;
40717;SDS011;26405;51.850;-2.246;2023-09-12T00:36:40;7.53;;;3.72;;
40717;SDS011;26405;51.850;-2.246;2023-09-12T00:39:05;7.70;;;4.17;;
40717;SDS011;26405;51.850;-2.246;2023-09-12T00:41:31;7.97;;;3.80;;
40717;SDS011;26405;51.850;-2.246;2023-09-12T00:43:56;6.50;;;3.50;;
40717;SDS011;26405;51.850;-2.246;2023-09-12T00:46:23;11.07;;;4.35;;
40717;SDS011;26405;51.850;-2.246;2023-09-12T00:48:49;9.40;;;4.13;;
40717;SDS011;26405;51.850;-2.246;2023-09-12T00:51:14;7.60;;;3.80;;
40717;SDS011;26405;51.850;-2.246;2023-09-12T00:53:40;13.47;;;4.33;;
40717;SDS011;26405;51.850;-2.246;2023-09-12T00:56:05;9.60;;;4.07;;
40717;SDS011;26405;51.850;-2.246;2023-09-12T00:58:31;9.23;;;4.60;;
40717;SDS011;26405;51.850;-2.246;2023-09-12T01:00:56;14.83;;;4.60;;
40717;SDS011;26405;51.850;-2.246;2023-09-12T01:03:22;10.50;;;4.47;;
40717;SDS011;26405;51.850;-2.246;2023-09-12T01:05:47;9.03;;;4.20;;
40717;SDS011;26405;51.850;-2.246;2023-09-12T01:08:13;11.57;;;4.47;;
40717;SDS011;26405;51.850;-2.246;2023-09-12T01:10:38;10.80;;;4.40;;
40717;SDS011;26405;51.850;-2.246;2023-09-12T01:13:04;9.27;;;4.40;;
40717;SDS011;26405;51.850;-2.246;2023-09-12T01:15:30;10.25;;;4.65;;
40717;SDS011;26405;51.850;-2.246;2023-09-12T01:17:56;11.07;;;4.60;;
40717;SDS011;26405;51.850;-2.246;2023-09-12T01:20:24;14.93;;;4.67;;
40717;SDS011;26405;51.850;-2.246;2023-09-12T01:27:58;9.30;;;4.40;;
40717;SDS011;26405;51.850;-2.246;2023-09-12T01:30:25;9.73;;;4.43;;
40717;SDS011;26405;51.850;-2.246;2023-09-12T01:32:50;9.57;;;4.60;;
40717;SDS011;26405;51.850;-2.246;2023-09-12T01:35:15;12.53;;;4.83;;
40717;SDS011;26405;51.850;-2.246;2023-09-12T01:37:41;9.93;;;4.67;;
40717;SDS011;26405;51.850;-2.246;2023-09-12T01:40:06;11.13;;;4.57;;
40717;SDS011;26405;51.850;-2.246;2023-09-12T01:42:36;12.57;;;5.25;;
40717;SDS011;26405;51.850;-2.246;2023-09-12T01:45:02;11.07;;;4.80;;
40717;SDS011;26405;51.850;-2.246;2023-09-12T01:47:28;13.98;;;4.90;;
40717;SDS011;26405;51.850;-2.246;2023-09-12T01:49:55;12.10;;;5.70;;
40717;SDS011;26405;51.850;-2.246;2023-09-12T01:52:21;12.32;;;5.43;;
40717;SDS011;26405;51.850;-2.246;2023-09-12T01:54:47;14.10;;;5.30;;
40717;SDS011;26405;51.850;-2.246;2023-09-12T01:57:13;11.87;;;5.47;;
40717;SDS011;26405;51.850;-2.246;2023-09-12T01:59:38;10.53;;;5.07;;
40717;SDS011;26405;51.850;-2.246;2023-09-12T02:02:04;13.57;;;5.67;;
40717;SDS011;26405;51.850;-2.246;2023-09-12T02:04:29;9.73;;;4.70;;
40717;SDS011;26405;51.850;-2.246;2023-09-12T02:06:54;11.70;;;5.50;;
40717;SDS011;26405;51.850;-2.246;2023-09-12T02:09:20;11.20;;;4.93;;
40717;SDS011;26405;51.850;-2.246;2023-09-12T02:11:46;9.93;;;4.80;;
40717;SDS011;26405;51.850;-2.246;2023-09-12T02:14:11;10.35;;;4.75;;
40717;SDS011;26405;51.850;-2.246;2023-09-12T02:16:37;9.77;;;4.73;;
40717;SDS011;26405;51.850;-2.246;2023-09-12T02:19:05;8.38;;;4.45;;
40717;SDS011;26405;51.850;-2.246;2023-09-12T02:21:30;10.03;;;4.53;;
40717;SDS011;26405;51.850;-2.246;2023-09-12T02:23:55;11.07;;;4.73;;
40717;SDS011;26405;51.850;-2.246;2023-09-12T02:26:21;8.43;;;4.40;;
40717;SDS011;26405;51.850;-2.246;2023-09-12T02:28:46;9.17;;;4.33;;
40717;SDS011;26405;51.850;-2.246;2023-09-12T02:31:11;9.20;;;4.40;;
40717;SDS011;26405;51.850;-2.246;2023-09-12T02:33:40;9.37;;;4.30;;
40717;SDS011;26405;51.850;-2.246;2023-09-12T02:36:05;8.45;;;3.78;;
40717;SDS011;26405;51.850;-2.246;2023-09-12T02:38:31;6.50;;;3.50;;
40717;SDS011;26405;51.850;-2.246;2023-09-12T02:40:57;6.10;;;3.30;;
40717;SDS011;26405;51.850;-2.246;2023-09-12T02:43:22;7.83;;;3.70;;
40717;SDS011;26405;51.850;-2.246;2023-09-12T02:45:48;4.80;;;3.13;;
40717;SDS011;26405;51.850;-2.246;2023-09-12T02:48:13;6.43;;;3.50;;
40717;SDS011;26405;51.850;-2.246;2023-09-12T02:50:38;6.47;;;3.23;;
40717;SDS011;26405;51.850;-2.246;2023-09-12T02:53:04;7.57;;;3.17;;
40717;SDS011;26405;51.850;-2.246;2023-09-12T02:55:29;6.83;;;3.07;;
40717;SDS011;26405;51.850;-2.246;2023-09-12T02:57:54;7.77;;;3.07;;
40717;SDS011;26405;51.850;-2.246;2023-09-12T03:00:20;7.33;;;3.00;;
40717;SDS011;26405;51.850;-2.246;2023-09-12T03:02:45;6.60;;;2.70;;
40717;SDS011;26405;51.850;-2.246;2023-09-12T03:05:10;5.47;;;3.00;;
40717;SDS011;26405;51.850;-2.246;2023-09-12T03:07:35;5.07;;;2.90;;
40717;SDS011;26405;51.850;-2.246;2023-09-12T03:10:01;8.90;;;2.70;;
40717;SDS011;26405;51.850;-2.246;2023-09-12T03:12:26;5.07;;;2.70;;
40717;SDS011;26405;51.850;-2.246;2023-09-12T03:14:52;7.03;;;3.10;;
40717;SDS011;26405;51.850;-2.246;2023-09-12T03:17:17;5.17;;;2.80;;
40717;SDS011;26405;51.850;-2.246;2023-09-12T03:19:42;8.00;;;3.13;;
40717;SDS011;26405;51.850;-2.246;2023-09-12T03:22:07;8.17;;;2.50;;
40717;SDS011;26405;51.850;-2.246;2023-09-12T03:24:33;7.00;;;2.77;;
40717;SDS011;26405;51.850;-2.246;2023-09-12T03:26:58;4.43;;;2.80;;
40717;SDS011;26405;51.850;-2.246;2023-09-12T03:29:23;7.53;;;2.97;;
40717;SDS011;26405;51.850;-2.246;2023-09-12T03:31:48;7.07;;;2.80;;
40717;SDS011;26405;51.850;-2.246;2023-09-12T03:34:14;4.50;;;2.70;;
40717;SDS011;26405;51.850;-2.246;2023-09-12T03:36:39;8.03;;;2.63;;
40717;SDS011;26405;51.850;-2.246;2023-09-12T03:39:07;6.23;;;2.53;;
40717;SDS011;26405;51.850;-2.246;2023-09-12T03:41:34;8.60;;;2.90;;
40717;SDS011;26405;51.850;-2.246;2023-09-12T03:43:59;5.00;;;2.90;;
40717;SDS011;26405;51.850;-2.246;2023-09-12T03:46:24;8.80;;;2.97;;
40717;SDS011;26405;51.850;-2.246;2023-09-12T03:48:50;10.17;;;2.80;;
40717;SDS011;26405;51.850;-2.246;2023-09-12T03:51:15;6.97;;;2.83;;
40717;SDS011;26405;51.850;-2.246;2023-09-12T03:53:40;6.10;;;3.03;;
40717;SDS011;26405;51.850;-2.246;2023-09-12T03:56:06;6.77;;;2.70;;
40717;SDS011;26405;51.850;-2.246;2023-09-12T03:58:31;8.20;;;3.00;;
40717;SDS011;26405;51.850;-2.246;2023-09-12T04:00:56;7.77;;;2.90;;
40717;SDS011;26405;51.850;-2.246;2023-09-12T04:03:22;8.40;;;2.83;;
40717;SDS011;26405;51.850;-2.246;2023-09-12T04:05:47;9.00;;;2.80;;
40717;SDS011;26405;51.850;-2.246;2023-09-12T04:08:13;8.70;;;2.97;;
40717;SDS011;26405;51.850;-2.246;2023-09-12T04:10:38;7.07;;;2.73;;
40717;SDS011;26405;51.850;-2.246;2023-09-12T04:13:03;7.10;;;3.00;;
40717;SDS011;26405;51.850;-2.246;2023-09-12T04:15:29;7.60;;;2.77;;
40717;SDS011;26405;51.850;-2.246;2023-09-12T04:17:54;6.30;;;3.20;;
40717;SDS011;26405;51.850;-2.246;2023-09-12T04:20:19;4.83;;;2.67;;
40717;SDS011;26405;51.850;-2.246;2023-09-12T04:22:44;4.57;;;2.57;;
40717;SDS011;26405;51.850;-2.246;2023-09-12T04:25:10;5.90;;;2.90;;
40717;SDS011;26405;51.850;-2.246;2023-09-12T04:27:35;5.57;;;2.43;;
40717;SDS011;26405;51.850;-2.246;2023-09-12T04:30:01;5.77;;;2.40;;
40717;SDS011;26405;51.850;-2.246;2023-09-12T04:32:27;4.23;;;2.30;;
40717;SDS011;26405;51.850;-2.246;2023-09-12T04:34:52;5.80;;;2.50;;
40717;SDS011;26405;51.850;-2.246;2023-09-12T04:37:17;5.37;;;2.40;;
40717;SDS011;26405;51.850;-2.246;2023-09-12T04:39:42;5.20;;;2.37;;
40717;SDS011;26405;51.850;-2.246;2023-09-12T04:42:08;4.33;;;2.40;;
40717;SDS011;26405;51.850;-2.246;2023-09-12T04:44:36;5.37;;;2.53;;
40717;SDS011;26405;51.850;-2.246;2023-09-12T04:47:02;5.13;;;2.45;;
40717;SDS011;26405;51.850;-2.246;2023-09-12T04:49:27;4.93;;;2.10;;
40717;SDS011;26405;51.850;-2.246;2023-09-12T04:51:53;4.40;;;2.20;;
40717;SDS011;26405;51.850;-2.246;2023-09-12T04:54:18;7.80;;;2.40;;
40717;SDS011;26405;51.850;-2.246;2023-09-12T04:56:43;3.93;;;2.23;;
40717;SDS011;26405;51.850;-2.246;2023-09-12T04:59:09;5.73;;;2.53;;
40717;SDS011;26405;51.850;-2.246;2023-09-12T05:01:34;4.77;;;2.20;;
40717;SDS011;26405;51.850;-2.246;2023-09-12T05:03:59;8.40;;;2.63;;
40717;SDS011;26405;51.850;-2.246;2023-09-12T05:06:24;4.83;;;2.40;;
40717;SDS011;26405;51.850;-2.246;2023-09-12T05:08:50;5.03;;;2.40;;
40717;SDS011;26405;51.850;-2.246;2023-09-12T05:11:15;6.10;;;2.30;;
40717;SDS011;26405;51.850;-2.246;2023-09-12T05:13:40;7.80;;;2.63;;
40717;SDS011;26405;51.850;-2.246;2023-09-12T05:16:06;7.50;;;2.50;;
40717;SDS011;26405;51.850;-2.246;2023-09-12T05:18:31;9.30;;;2.30;;
40717;SDS011;26405;51.850;-2.246;2023-09-12T05:20:56;6.30;;;2.33;;
40717;SDS011;26405;51.850;-2.246;2023-09-12T05:23:22;5.90;;;2.30;;
40717;SDS011;26405;51.850;-2.246;2023-09-12T05:25:47;4.13;;;1.87;;
40717;SDS011;26405;51.850;-2.246;2023-09-12T05:28:12;6.90;;;2.73;;
40717;SDS011;26405;51.850;-2.246;2023-09-12T05:30:41;4.50;;;2.10;;
40717;SDS011;26405;51.850;-2.246;2023-09-12T05:33:06;4.13;;;2.20;;
40717;SDS011;26405;51.850;-2.246;2023-09-12T05:35:31;4.43;;;2.50;;
40717;SDS011;26405;51.850;-2.246;2023-09-12T05:37:59;4.37;;;2.57;;
40717;SDS011;26405;51.850;-2.246;2023-09-12T05:40:24;3.47;;;2.22;;
40717;SDS011;26405;51.850;-2.246;2023-09-12T05:42:49;3.57;;;2.00;;
40717;SDS011;26405;51.850;-2.246;2023-09-12T05:45:15;4.97;;;2.40;;
40717;SDS011;26405;51.850;-2.246;2023-09-12T05:47:40;3.80;;;2.40;;
40717;SDS011;26405;51.850;-2.246;2023-09-12T05:50:05;5.53;;;2.80;;
40717;SDS011;26405;51.850;-2.246;2023-09-12T05:52:32;3.58;;;2.10;;
40717;SDS011;26405;51.850;-2.246;2023-09-12T05:54:57;6.17;;;2.47;;
40717;SDS011;26405;51.850;-2.246;2023-09-12T05:57:22;4.90;;;2.30;;
40717;SDS011;26405;51.850;-2.246;2023-09-12T05:59:47;5.63;;;2.30;;
40717;SDS011;26405;51.850;-2.246;2023-09-12T06:02:13;5.27;;;2.33;;
40717;SDS011;26405;51.850;-2.246;2023-09-12T06:04:38;3.67;;;2.10;;
40717;SDS011;26405;51.850;-2.246;2023-09-12T06:07:03;5.60;;;2.40;;
40717;SDS011;26405;51.850;-2.246;2023-09-12T06:09:29;3.03;;;2.00;;
40717;SDS011;26405;51.850;-2.246;2023-09-12T06:11:54;6.57;;;2.17;;
40717;SDS011;26405;51.850;-2.246;2023-09-12T06:14:19;5.73;;;2.07;;
40717;SDS011;26405;51.850;-2.246;2023-09-12T06:16:45;6.43;;;2.20;;
40717;SDS011;26405;51.850;-2.246;2023-09-12T06:19:10;5.03;;;2.73;;
40717;SDS011;26405;51.850;-2.246;2023-09-12T06:21:35;5.47;;;2.60;;
40717;SDS011;26405;51.850;-2.246;2023-09-12T06:26:36;6.53;;;2.38;;
40717;SDS011;26405;51.850;-2.246;2023-09-12T06:29:01;5.73;;;2.50;;
40717;SDS011;26405;51.850;-2.246;2023-09-12T06:31:27;3.78;;;2.53;;
40717;SDS011;26405;51.850;-2.246;2023-09-12T06:33:53;5.57;;;2.50;;
40717;SDS011;26405;51.850;-2.246;2023-09-12T06:36:18;5.53;;;2.50;;
40717;SDS011;26405;51.850;-2.246;2023-09-12T06:38:43;7.30;;;2.70;;
40717;SDS011;26405;51.850;-2.246;2023-09-12T06:41:08;6.83;;;2.60;;
40717;SDS011;26405;51.850;-2.246;2023-09-12T06:43:34;6.03;;;2.70;;
40717;SDS011;26405;51.850;-2.246;2023-09-12T06:45:59;7.77;;;2.87;;
40717;SDS011;26405;51.850;-2.246;2023-09-12T06:48:24;6.87;;;2.90;;
40717;SDS011;26405;51.850;-2.246;2023-09-12T06:50:49;6.30;;;3.23;;
40717;SDS011;26405;51.850;-2.246;2023-09-12T06:53:15;6.80;;;3.03;;
40717;SDS011;26405;51.850;-2.246;2023-09-12T06:55:40;9.37;;;2.87;;
40717;SDS011;26405;51.850;-2.246;2023-09-12T06:58:06;5.07;;;2.67;;
40717;SDS011;26405;51.850;-2.246;2023-09-12T07:00:31;6.13;;;3.37;;
40717;SDS011;26405;51.850;-2.246;2023-09-12T07:02:56;8.17;;;3.33;;
40717;SDS011;26405;51.850;-2.246;2023-09-12T07:05:22;5.10;;;2.97;;
40717;SDS011;26405;51.850;-2.246;2023-09-12T07:07:47;7.40;;;3.03;;
40717;SDS011;26405;51.850;-2.246;2023-09-12T07:10:12;6.00;;;3.20;;
40717;SDS011;26405;51.850;-2.246;2023-09-12T07:12:37;8.97;;;3.10;;
40717;SDS011;26405;51.850;-2.246;2023-09-12T07:15:03;7.67;;;2.87;;
40717;SDS011;26405;51.850;-2.246;2023-09-12T07:17:29;7.17;;;2.93;;
40717;SDS011;26405;51.850;-2.246;2023-09-12T07:19:55;5.63;;;2.80;;
40717;SDS011;26405;51.850;-2.246;2023-09-12T07:22:20;7.93;;;3.17;;
40717;SDS011;26405;51.850;-2.246;2023-09-12T07:24:46;6.50;;;3.00;;
40717;SDS011;26405;51.850;-2.246;2023-09-12T07:27:11;5.53;;;3.10;;
40717;SDS011;26405;51.850;-2.246;2023-09-12T07:29:37;6.70;;;3.30;;
40717;SDS011;26405;51.850;-2.246;2023-09-12T07:32:02;9.57;;;3.20;;
40717;SDS011;26405;51.850;-2.246;2023-09-12T07:34:28;7.43;;;3.00;;
40717;SDS011;26405;51.850;-2.246;2023-09-12T07:36:53;5.73;;;3.13;;
40717;SDS011;26405;51.850;-2.246;2023-09-12T07:39:19;10.75;;;3.20;;
40717;SDS011;26405;51.850;-2.246;2023-09-12T07:41:45;9.40;;;3.23;;
40717;SDS011;26405;51.850;-2.246;2023-09-12T07:44:10;6.47;;;2.90;;
40717;SDS011;26405;51.850;-2.246;2023-09-12T07:46:40;7.43;;;3.20;;
40717;SDS011;26405;51.850;-2.246;2023-09-12T07:49:05;6.20;;;3.20;;
40717;SDS011;26405;51.850;-2.246;2023-09-12T07:51:33;9.23;;;3.30;;
40717;SDS011;26405;51.850;-2.246;2023-09-12T07:53:58;7.97;;;3.20;;
40717;SDS011;26405;51.850;-2.246;2023-09-12T07:56:24;6.83;;;2.90;;
40717;SDS011;26405;51.850;-2.246;2023-09-12T07:58:49;10.83;;;3.30;;
40717;SDS011;26405;51.850;-2.246;2023-09-12T08:01:14;6.50;;;3.17;;
40717;SDS011;26405;51.850;-2.246;2023-09-12T08:03:41;8.67;;;3.27;;
40717;SDS011;26405;51.850;-2.246;2023-09-12T08:06:07;5.10;;;2.92;;
40717;SDS011;26405;51.850;-2.246;2023-09-12T08:08:32;6.43;;;3.10;;
40717;SDS011;26405;51.850;-2.246;2023-09-12T08:10:57;11.20;;;3.37;;
40717;SDS011;26405;51.850;-2.246;2023-09-12T08:13:25;7.63;;;3.40;;
40717;SDS011;26405;51.850;-2.246;2023-09-12T08:15:50;9.55;;;3.13;;
40717;SDS011;26405;51.850;-2.246;2023-09-12T08:18:16;6.70;;;2.97;;
40717;SDS011;26405;51.850;-2.246;2023-09-12T08:20:42;6.97;;;3.37;;
40717;SDS011;26405;51.850;-2.246;2023-09-12T08:23:08;5.75;;;3.15;;
40717;SDS011;26405;51.850;-2.246;2023-09-12T08:25:33;6.03;;;3.20;;
40717;SDS011;26405;51.850;-2.246;2023-09-12T08:27:58;6.30;;;3.00;;
40717;SDS011;26405;51.850;-2.246;2023-09-12T08:30:24;6.03;;;2.80;;
40717;SDS011;26405;51.850;-2.246;2023-09-12T08:32:50;6.78;;;2.83;;
40717;SDS011;26405;51.850;-2.246;2023-09-12T08:35:16;5.53;;;2.97;;
40717;SDS011;26405;51.850;-2.246;2023-09-12T08:37:41;6.60;;;3.37;;
40717;SDS011;26405;51.850;-2.246;2023-09-12T08:40:08;5.90;;;3.10;;
40717;SDS011;26405;51.850;-2.246;2023-09-12T08:42:43;10.55;;;3.22;;
40717;SDS011;26405;51.850;-2.246;2023-09-12T08:45:11;8.32;;;3.33;;
40717;SDS011;26405;51.850;-2.246;2023-09-12T08:47:37;6.00;;;3.47;;
40717;SDS011;26405;51.850;-2.246;2023-09-12T08:50:04;6.55;;;3.10;;
40717;SDS011;26405;51.850;-2.246;2023-09-12T08:52:30;5.30;;;3.00;;
40717;SDS011;26405;51.850;-2.246;2023-09-12T08:54:55;8.03;;;3.13;;
40717;SDS011;26405;51.850;-2.246;2023-09-12T08:57:20;7.53;;;3.17;;
40717;SDS011;26405;51.850;-2.246;2023-09-12T08:59:46;5.10;;;2.90;;
40717;SDS011;26405;51.850;-2.246;2023-09-12T09:02:13;5.25;;;3.00;;
40717;SDS011;26405;51.850;-2.246;2023-09-12T09:04:39;6.30;;;3.13;;
40717;SDS011;26405;51.850;-2.246;2023-09-12T09:07:04;6.33;;;3.07;;
40717;SDS011;26405;51.850;-2.246;2023-09-12T09:09:30;8.70;;;3.20;;
40717;SDS011;26405;51.850;-2.246;2023-09-12T09:11:56;3.58;;;2.67;;
40717;SDS011;26405;51.850;-2.246;2023-09-12T09:14:21;11.63;;;3.17;;
40717;SDS011;26405;51.850;-2.246;2023-09-12T09:16:46;8.47;;;3.40;;
40717;SDS011;26405;51.850;-2.246;2023-09-12T09:19:12;5.87;;;3.20;;
40717;SDS011;26405;51.850;-2.246;2023-09-12T09:21:38;6.20;;;3.10;;
40717;SDS011;26405;51.850;-2.246;2023-09-12T09:24:09;6.93;;;3.55;;
40717;SDS011;26405;51.850;-2.246;2023-09-12T09:26:44;7.72;;;3.60;;
40717;SDS011;26405;51.850;-2.246;2023-09-12T09:29:10;7.60;;;3.20;;
40717;SDS011;26405;51.850;-2.246;2023-09-12T09:31:35;12.32;;;3.45;;
40717;SDS011;26405;51.850;-2.246;2023-09-12T09:34:04;7.18;;;3.45;;
40717;SDS011;26405;51.850;-2.246;2023-09-12T09:36:35;6.93;;;3.20;;
40717;SDS011;26405;51.850;-2.246;2023-09-12T09:39:00;9.00;;;3.30;;
40717;SDS011;26405;51.850;-2.246;2023-09-12T09:41:29;9.38;;;3.72;;
40717;SDS011;26405;51.850;-2.246;2023-09-12T09:43:54;9.97;;;3.50;;
40717;SDS011;26405;51.850;-2.246;2023-09-12T09:46:20;8.27;;;3.67;;
40717;SDS011;26405;51.850;-2.246;2023-09-12T09:48:49;6.50;;;3.63;;
40717;SDS011;26405;51.850;-2.246;2023-09-12T09:51:14;8.35;;;3.20;;
40717;SDS011;26405;51.850;-2.246;2023-09-12T09:53:40;6.40;;;2.87;;
40717;SDS011;26405;51.850;-2.246;2023-09-12T09:56:09;5.87;;;3.10;;
40717;SDS011;26405;51.850;-2.246;2023-09-12T09:58:35;5.32;;;3.10;;
40717;SDS011;26405;51.850;-2.246;2023-09-12T10:01:01;6.13;;;3.17;;
40717;SDS011;26405;51.850;-2.246;2023-09-12T10:03:26;5.63;;;3.23;;
40717;SDS011;26405;51.850;-2.246;2023-09-12T10:05:53;6.85;;;3.33;;
40717;SDS011;26405;51.850;-2.246;2023-09-12T10:08:19;8.50;;;3.42;;
40717;SDS011;26405;51.850;-2.246;2023-09-12T10:10:45;6.83;;;3.13;;
40717;SDS011;26405;51.850;-2.246;2023-09-12T10:15:37;5.93;;;2.95;;
40717;SDS011;26405;51.850;-2.246;2023-09-12T10:18:04;4.45;;;2.63;;
40717;SDS011;26405;51.850;-2.246;2023-09-12T10:20:34;6.10;;;3.00;;
40717;SDS011;26405;51.850;-2.246;2023-09-12T10:23:05;7.78;;;3.40;;
40717;SDS011;26405;51.850;-2.246;2023-09-12T10:25:34;5.35;;;3.10;;
40717;SDS011;26405;51.850;-2.246;2023-09-12T10:28:00;7.45;;;3.38;;
40717;SDS011;26405;51.850;-2.246;2023-09-12T10:30:26;6.57;;;3.27;;
40717;SDS011;26405;51.850;-2.246;2023-09-12T10:32:51;7.73;;;3.13;;
40717;SDS011;26405;51.850;-2.246;2023-09-12T10:35:17;8.30;;;3.30;;
40717;SDS011;26405;51.850;-2.246;2023-09-12T10:37:43;6.33;;;2.90;;
40717;SDS011;26405;51.850;-2.246;2023-09-12T10:40:11;7.05;;;3.17;;
40717;SDS011;26405;51.850;-2.246;2023-09-12T10:42:38;7.40;;;3.40;;
40717;SDS011;26405;51.850;-2.246;2023-09-12T10:45:05;7.10;;;2.83;;
40717;SDS011;26405;51.850;-2.246;2023-09-12T10:47:32;5.50;;;2.88;;
40717;SDS011;26405;51.850;-2.246;2023-09-12T10:49:57;5.23;;;3.00;;
40717;SDS011;26405;51.850;-2.246;2023-09-12T10:52:23;5.70;;;2.83;;
40717;SDS011;26405;51.850;-2.246;2023-09-12T10:54:49;6.05;;;2.88;;
40717;SDS011;26405;51.850;-2.246;2023-09-12T10:57:14;5.90;;;3.10;;
40717;SDS011;26405;51.850;-2.246;2023-09-12T11:04:52;4.70;;;2.67;;
40717;SDS011;26405;51.850;-2.246;2023-09-12T11:08:00;5.07;;;2.70;;
40717;SDS011;26405;51.850;-2.246;2023-09-12T11:10:24;3.63;;;2.47;;
40717;SDS011;26405;51.850;-2.246;2023-09-12T11:12:50;3.15;;;2.30;;
40717;SDS011;26405;51.850;-2.246;2023-09-12T11:17:42;2.47;;;2.25;;
40717;SDS011;26405;51.850;-2.246;2023-09-12T11:20:08;3.38;;;1.90;;
40717;SDS011;26405;51.850;-2.246;2023-09-12T11:27:44;1.90;;;1.80;;
40717;SDS011;26405;51.850;-2.246;2023-09-12T11:30:10;1.70;;;1.60;;
40717;SDS011;26405;51.850;-2.246;2023-09-12T11:32:36;1.70;;;1.60;;
40717;SDS011;26405;51.850;-2.246;2023-09-12T11:35:05;2.80;;;2.00;;
40717;SDS011;26405;51.850;-2.246;2023-09-12T11:37:31;1.70;;;1.60;;
40717;SDS011;26405;51.850;-2.246;2023-09-12T11:39:57;1.77;;;1.65;;
40717;SDS011;26405;51.850;-2.246;2023-09-12T11:42:23;1.70;;;1.60;;
40717;SDS011;26405;51.850;-2.246;2023-09-12T11:44:50;2.53;;;1.58;;
40717;SDS011;26405;51.850;-2.246;2023-09-12T11:47:16;3.03;;;2.00;;
40717;SDS011;26405;51.850;-2.246;2023-09-12T11:49:41;3.97;;;1.90;;
40717;SDS011;26405;51.850;-2.246;2023-09-12T11:52:10;2.03;;;1.70;;
40717;SDS011;26405;51.850;-2.246;2023-09-12T11:54:37;2.97;;;1.90;;
40717;SDS011;26405;51.850;-2.246;2023-09-12T11:57:02;1.97;;;1.80;;
40717;SDS011;26405;51.850;-2.246;2023-09-12T11:59:28;2.40;;;1.73;;
40717;SDS011;26405;51.850;-2.246;2023-09-12T12:01:54;5.77;;;2.10;;
40717;SDS011;26405;51.850;-2.246;2023-09-12T12:04:23;1.80;;;1.70;;
40717;SDS011;26405;51.850;-2.246;2023-09-12T12:06:49;4.45;;;1.90;;
40717;SDS011;26405;51.850;-2.246;2023-09-12T12:09:15;2.70;;;2.00;;
40717;SDS011;26405;51.850;-2.246;2023-09-12T12:11:43;4.10;;;2.15;;
40717;SDS011;26405;51.850;-2.246;2023-09-12T12:14:10;5.53;;;2.37;;
40717;SDS011;26405;51.850;-2.246;2023-09-12T12:16:35;4.82;;;2.30;;
40717;SDS011;26405;51.850;-2.246;2023-09-12T12:19:01;4.40;;;2.20;;
40717;SDS011;26405;51.850;-2.246;2023-09-12T12:21:26;3.43;;;2.10;;
40717;SDS011;26405;51.850;-2.246;2023-09-12T12:24:02;8.50;;;2.60;;
40717;SDS011;26405;51.850;-2.246;2023-09-12T12:26:31;3.33;;;2.35;;
40717;SDS011;26405;51.850;-2.246;2023-09-12T12:28:58;2.57;;;2.20;;
40717;SDS011;26405;51.850;-2.246;2023-09-12T12:31:23;3.88;;;2.00;;
40717;SDS011;26405;51.850;-2.246;2023-09-12T12:33:53;4.53;;;2.30;;
40717;SDS011;26405;51.850;-2.246;2023-09-12T12:36:18;2.33;;;1.77;;
40717;SDS011;26405;51.850;-2.246;2023-09-12T12:38:45;2.80;;;1.80;;
40717;SDS011;26405;51.850;-2.246;2023-09-12T12:41:10;5.97;;;2.15;;
40717;SDS011;26405;51.850;-2.246;2023-09-12T12:43:36;4.03;;;2.47;;
40717;SDS011;26405;51.850;-2.246;2023-09-12T12:46:04;3.95;;;2.40;;
40717;SDS011;26405;51.850;-2.246;2023-09-12T12:48:36;5.50;;;2.47;;
40717;SDS011;26405;51.850;-2.246;2023-09-12T12:51:17;4.97;;;2.20;;
40717;SDS011;26405;51.850;-2.246;2023-09-12T12:53:44;3.28;;;1.90;;
40717;SDS011;26405;51.850;-2.246;2023-09-12T12:56:11;4.65;;;2.47;;
40717;SDS011;26405;51.850;-2.246;2023-09-12T12:58:37;3.80;;;2.38;;
40717;SDS011;26405;51.850;-2.246;2023-09-12T13:01:02;3.60;;;2.20;;
40717;SDS011;26405;51.850;-2.246;2023-09-12T13:03:27;6.03;;;2.30;;
40717;SDS011;26405;51.850;-2.246;2023-09-12T13:05:53;3.40;;;2.40;;
40717;SDS011;26405;51.850;-2.246;2023-09-12T13:08:18;3.73;;;2.40;;
40717;SDS011;26405;51.850;-2.246;2023-09-12T13:10:43;3.30;;;2.20;;
40717;SDS011;26405;51.850;-2.246;2023-09-12T13:13:08;3.37;;;2.30;;
40717;SDS011;26405;51.850;-2.246;2023-09-12T13:15:34;4.37;;;2.50;;
40717;SDS011;26405;51.850;-2.246;2023-09-12T13:17:59;3.63;;;2.17;;
40717;SDS011;26405;51.850;-2.246;2023-09-12T13:20:24;4.37;;;2.30;;
40717;SDS011;26405;51.850;-2.246;2023-09-12T13:22:50;2.97;;;2.20;;
40717;SDS011;26405;51.850;-2.246;2023-09-12T13:25:15;4.43;;;2.77;;
40717;SDS011;26405;51.850;-2.246;2023-09-12T13:27:40;3.20;;;2.20;;
40717;SDS011;26405;51.850;-2.246;2023-09-12T13:30:06;3.87;;;2.30;;
40717;SDS011;26405;51.850;-2.246;2023-09-12T13:32:32;2.35;;;2.10;;
40717;SDS011;26405;51.850;-2.246;2023-09-12T13:34:58;2.38;;;2.15;;
40717;SDS011;26405;51.850;-2.246;2023-09-12T13:37:24;4.10;;;2.20;;
40717;SDS011;26405;51.850;-2.246;2023-09-12T13:39:49;2.40;;;2.20;;
40717;SDS011;26405;51.850;-2.246;2023-09-12T13:42:15;2.13;;;2.00;;
40717;SDS011;26405;51.850;-2.246;2023-09-12T13:44:44;2.78;;;2.30;;
40717;SDS011;26405;51.850;-2.246;2023-09-12T13:47:09;4.30;;;2.47;;
40717;SDS011;26405;51.850;-2.246;2023-09-12T13:49:35;2.70;;;2.50;;
40717;SDS011;26405;51.850;-2.246;2023-09-12T13:52:00;4.93;;;2.70;;
40717;SDS011;26405;51.850;-2.246;2023-09-12T13:54:25;2.50;;;2.30;;
40717;SDS011;26405;51.850;-2.246;2023-09-12T13:56:51;2.57;;;2.37;;
40717;SDS011;26405;51.850;-2.246;2023-09-12T13:59:16;3.53;;;2.70;;
40717;SDS011;26405;51.850;-2.246;2023-09-12T14:01:42;5.25;;;2.35;;
40717;SDS011;26405;51.850;-2.246;2023-09-12T14:04:08;5.87;;;2.70;;
40717;SDS011;26405;51.850;-2.246;2023-09-12T14:06:33;3.37;;;2.50;;
40717;SDS011;26405;51.850;-2.246;2023-09-12T14:09:00;3.55;;;2.50;;
40717;SDS011;26405;51.850;-2.246;2023-09-12T14:11:25;4.87;;;2.60;;
40717;SDS011;26405;51.850;-2.246;2023-09-12T14:13:50;4.00;;;2.27;;
40717;SDS011;26405;51.850;-2.246;2023-09-12T14:16:15;2.60;;;2.40;;
40717;SDS011;26405;51.850;-2.246;2023-09-12T14:18:41;4.20;;;3.17;;
40717;SDS011;26405;51.850;-2.246;2023-09-12T14:21:06;8.00;;;3.10;;
40717;SDS011;26405;51.850;-2.246;2023-09-12T14:23:31;3.77;;;2.37;;
40717;SDS011;26405;51.850;-2.246;2023-09-12T14:25:56;3.63;;;2.43;;
40717;SDS011;26405;51.850;-2.246;2023-09-12T14:28:22;3.47;;;2.57;;
40717;SDS011;26405;51.850;-2.246;2023-09-12T14:30:47;2.60;;;2.40;;
40717;SDS011;26405;51.850;-2.246;2023-09-12T14:33:14;3.83;;;2.30;;
40717;SDS011;26405;51.850;-2.246;2023-09-12T14:35:40;3.57;;;2.63;;
40717;SDS011;26405;51.850;-2.246;2023-09-12T14:38:06;4.63;;;2.60;;
40717;SDS011;26405;51.850;-2.246;2023-09-12T14:40:31;4.57;;;2.53;;
40717;SDS011;26405;51.850;-2.246;2023-09-12T14:42:56;2.60;;;2.20;;
40717;SDS011;26405;51.850;-2.246;2023-09-12T14:45:22;4.33;;;2.33;;
40717;SDS011;26405;51.850;-2.246;2023-09-12T14:47:50;3.10;;;2.30;;
40717;SDS011;26405;51.850;-2.246;2023-09-12T14:50:15;3.30;;;2.47;;